createdAt,value
2023-08-19T00:01:06.143Z,24.70
2023-08-19T00:03:36.768Z,24.37
2023-08-19T00:06:08.756Z,24.51
2023-08-19T00:08:37.768Z,24.42
2023-08-19T00:11:06.951Z,24.60
2023-08-19T00:13:35.598Z,24.57
2023-08-19T00:16:05.325Z,24.71
2023-08-19T00:18:35.230Z,24.61
2023-08-19T00:21:03.234Z,24.48
2023-08-19T00:23:31.707Z,24.72
2023-08-19T00:26:00.084Z,24.63
2023-08-19T00:28:28.050Z,24.53
2023-08-19T00:30:55.961Z,24.56
2023-08-19T00:33:24.447Z,24.54
2023-08-19T00:35:54.842Z,24.68
2023-08-19T00:38:22.970Z,24.82
2023-08-19T00:40:51.442Z,24.47
2023-08-19T00:43:19.410Z,24.59
2023-08-19T00:45:50.047Z,24.83
2023-08-19T00:48:20.992Z,24.72
2023-08-19T00:50:49.809Z,24.69
2023-08-19T00:53:19.942Z,24.71
2023-08-19T00:55:48.382Z,24.77
2023-08-19T00:58:16.577Z,24.78
2023-08-19T01:00:45.581Z,24.99
2023-08-19T01:03:13.613Z,25.09
2023-08-19T01:05:57.974Z,24.93
2023-08-19T01:08:39.878Z,24.74
2023-08-19T01:11:18.837Z,24.72
2023-08-19T01:14:03.015Z,24.78
2023-08-19T01:16:32.871Z,24.77
2023-08-19T01:19:05.189Z,24.82
2023-08-19T01:21:33.614Z,24.67
2023-08-19T01:24:08.488Z,24.85
2023-08-19T01:26:37.738Z,24.66
2023-08-19T01:29:05.989Z,24.54
2023-08-19T01:31:34.288Z,24.79
2023-08-19T01:34:02.712Z,24.47
2023-08-19T01:36:43.433Z,24.54
2023-08-19T01:39:13.998Z,24.52
2023-08-19T01:41:44.982Z,24.61
2023-08-19T01:44:13.392Z,24.61
2023-08-19T01:46:41.261Z,24.67
2023-08-19T01:49:09.205Z,24.29
2023-08-19T01:51:36.999Z,24.57
2023-08-19T01:54:05.588Z,24.39
2023-08-19T01:56:33.498Z,24.63
2023-08-19T01:59:02.818Z,24.56
2023-08-19T02:01:30.784Z,24.61
2023-08-19T02:03:58.774Z,24.83
2023-08-19T02:06:26.757Z,24.94
2023-08-19T02:08:54.646Z,24.83
2023-08-19T02:11:22.577Z,24.97
2023-08-19T02:13:50.566Z,25.11
2023-08-19T02:16:19.946Z,24.88
2023-08-19T02:18:47.701Z,24.69
2023-08-19T02:21:15.662Z,24.68
2023-08-19T02:23:43.789Z,24.64
2023-08-19T02:26:11.856Z,24.74
2023-08-19T02:28:39.756Z,24.78
2023-08-19T02:31:07.656Z,24.56
2023-08-19T02:33:38.123Z,24.78
2023-08-19T02:36:07.565Z,24.65
2023-08-19T02:38:35.708Z,24.72
2023-08-19T02:41:03.960Z,24.40
2023-08-19T02:43:31.824Z,24.36
2023-08-19T02:45:59.764Z,24.44
2023-08-19T02:48:27.787Z,24.51
2023-08-19T02:50:57.467Z,24.34
2023-08-19T02:53:25.840Z,24.36
2023-08-19T02:55:54.328Z,24.18
2023-08-19T02:58:22.630Z,24.31
2023-08-19T03:00:51.044Z,24.47
2023-08-19T03:03:19.361Z,24.37
2023-08-19T03:05:47.429Z,24.38
2023-08-19T03:08:16.725Z,24.37
2023-08-19T03:10:44.467Z,24.50
2023-08-19T03:13:12.457Z,24.54
2023-08-19T03:15:40.754Z,24.54
2023-08-19T03:18:09.031Z,24.41
2023-08-19T03:20:37.226Z,24.46
2023-08-19T03:23:05.700Z,24.45
2023-08-19T03:25:35.090Z,24.21
2023-08-19T03:28:03.244Z,24.22
2023-08-19T03:30:31.195Z,24.17
2023-08-19T03:32:59.231Z,23.96
2023-08-19T03:35:27.294Z,24.01
2023-08-19T03:37:55.246Z,24.25
2023-08-19T03:40:23.431Z,24.33
2023-08-19T03:42:52.666Z,24.39
2023-08-19T03:45:20.702Z,24.36
2023-08-19T03:47:48.818Z,24.54
2023-08-19T03:50:16.955Z,24.41
2023-08-19T03:52:44.780Z,24.60
2023-08-19T03:55:12.682Z,24.62
2023-08-19T03:57:40.638Z,24.23
2023-08-19T04:00:13.024Z,24.39
2023-08-19T04:02:41.031Z,24.53
2023-08-19T04:05:12.699Z,24.53
2023-08-19T04:07:40.909Z,24.53
2023-08-19T04:10:10.464Z,24.46
2023-08-19T04:12:39.165Z,24.44
2023-08-19T04:15:11.309Z,23.80
2023-08-19T04:17:39.398Z,24.19
2023-08-19T04:20:10.516Z,24.14
2023-08-19T04:22:39.563Z,24.34
2023-08-19T04:25:08.377Z,24.59
2023-08-19T04:27:37.399Z,24.64
2023-08-19T04:30:07.339Z,24.48
2023-08-19T04:32:37.822Z,24.56
2023-08-19T04:35:07.550Z,24.54
2023-08-19T04:37:35.582Z,24.44
2023-08-19T04:40:04.207Z,23.98
2023-08-19T04:42:32.122Z,24.31
2023-08-19T04:45:00.181Z,24.37
2023-08-19T04:47:28.137Z,24.36
2023-08-19T04:49:57.461Z,24.23
2023-08-19T04:52:25.427Z,24.46
2023-08-19T04:54:53.834Z,24.46
2023-08-19T04:57:21.803Z,24.62
2023-08-19T04:59:49.791Z,24.74
2023-08-19T05:02:17.659Z,24.72
2023-08-19T05:04:45.528Z,24.67
2023-08-19T05:07:14.958Z,24.60
2023-08-19T05:09:42.992Z,24.54
2023-08-19T05:12:11.122Z,24.54
2023-08-19T05:14:39.121Z,24.68
2023-08-19T05:17:07.334Z,24.67
2023-08-19T05:19:36.847Z,24.57
2023-08-19T05:22:05.208Z,24.34
2023-08-19T05:24:34.883Z,24.39
2023-08-19T05:27:03.103Z,24.67
2023-08-19T05:29:31.634Z,24.56
2023-08-19T05:32:00.130Z,24.40
2023-08-19T05:34:28.399Z,24.37
2023-08-19T05:36:56.330Z,24.64
2023-08-19T05:39:24.463Z,24.57
2023-08-19T05:41:53.727Z,24.74
2023-08-19T05:44:21.499Z,24.63
2023-08-19T05:46:49.735Z,25.02
2023-08-19T05:49:17.640Z,25.19
2023-08-19T05:51:45.970Z,25.58
2023-08-19T05:54:13.988Z,24.91
2023-08-19T05:56:42.018Z,25.26
2023-08-19T05:59:11.389Z,25.44
2023-08-19T06:01:39.716Z,25.81
2023-08-19T06:04:07.857Z,25.39
2023-08-19T06:06:36.182Z,25.23
2023-08-19T06:09:04.504Z,25.39
2023-08-19T06:11:32.384Z,25.58
2023-08-19T06:14:00.537Z,25.86
2023-08-19T06:16:29.869Z,25.92
2023-08-19T06:18:57.802Z,25.97
2023-08-19T06:21:25.883Z,26.02
2023-08-19T06:23:53.736Z,26.34
2023-08-19T06:26:21.875Z,26.31
2023-08-19T06:28:51.312Z,26.10
2023-08-19T06:31:21.635Z,26.34
2023-08-19T06:33:53.563Z,25.99
2023-08-19T06:36:29.485Z,26.27
2023-08-19T06:39:09.075Z,26.29
2023-08-19T06:41:43.522Z,25.93
2023-08-19T06:44:20.072Z,25.92
2023-08-19T06:46:48.710Z,25.75
2023-08-19T06:49:19.091Z,25.71
2023-08-19T06:51:47.952Z,25.77
2023-08-19T06:54:17.176Z,25.72
2023-08-19T06:56:53.503Z,25.72
2023-08-19T06:59:29.998Z,25.83
2023-08-19T07:02:03.765Z,25.79
2023-08-19T07:04:34.854Z,25.78
2023-08-19T07:07:05.505Z,25.87
2023-08-19T07:09:36.613Z,25.56
2023-08-19T07:12:05.823Z,25.89
2023-08-19T07:14:36.268Z,25.84
2023-08-19T07:17:05.294Z,26.00
2023-08-19T07:19:40.363Z,26.06
2023-08-19T07:22:09.482Z,26.10
2023-08-19T07:24:38.467Z,26.28
2023-08-19T07:27:08.183Z,26.25
2023-08-19T07:29:41.226Z,26.14
2023-08-19T07:32:12.058Z,26.20
2023-08-19T07:34:41.822Z,26.34
2023-08-19T07:37:11.734Z,26.39
2023-08-19T07:39:47.926Z,26.14
2023-08-19T07:42:15.928Z,26.31
2023-08-19T07:44:43.735Z,26.46
2023-08-19T07:47:12.030Z,26.48
2023-08-19T07:49:41.752Z,26.50
2023-08-19T07:52:10.273Z,26.72
2023-08-19T07:54:38.144Z,26.37
2023-08-19T07:57:06.087Z,27.04
2023-08-19T07:59:35.571Z,27.74
2023-08-19T08:02:03.877Z,26.86
2023-08-19T08:04:31.897Z,27.37
2023-08-19T08:07:01.643Z,27.46
2023-08-19T08:09:29.596Z,27.90
2023-08-19T08:11:57.547Z,28.03
2023-08-19T08:14:25.721Z,27.47
2023-08-19T08:16:57.687Z,27.43
2023-08-19T08:19:27.212Z,27.31
2023-08-19T08:21:55.545Z,27.58
2023-08-19T08:24:25.321Z,27.59
2023-08-19T08:26:53.349Z,27.58
2023-08-19T08:29:21.421Z,27.63
2023-08-19T08:31:49.321Z,27.45
2023-08-19T08:34:17.177Z,27.55
2023-08-19T08:36:45.608Z,27.92
2023-08-19T08:39:15.343Z,27.97
2023-08-19T08:41:46.528Z,27.98
2023-08-19T08:44:15.132Z,28.31
2023-08-19T08:46:47.013Z,28.55
2023-08-19T08:49:19.712Z,28.74
2023-08-19T08:51:49.104Z,28.61
2023-08-19T08:54:17.960Z,28.79
2023-08-19T08:56:47.356Z,28.85
2023-08-19T08:59:15.663Z,29.25
2023-08-19T09:01:48.369Z,29.03
2023-08-19T09:04:18.235Z,29.53
2023-08-19T09:06:56.038Z,29.46
2023-08-19T09:09:27.731Z,29.23
2023-08-19T09:11:59.305Z,28.62
2023-08-19T09:14:40.591Z,29.29
2023-08-19T09:17:08.737Z,29.57
2023-08-19T09:19:37.095Z,29.48
2023-08-19T09:22:22.421Z,29.58
2023-08-19T09:24:50.960Z,30.21
2023-08-19T09:27:32.361Z,30.08
2023-08-19T09:30:01.516Z,30.12
2023-08-19T09:32:31.847Z,29.91
2023-08-19T09:35:05.835Z,30.52
2023-08-19T09:37:35.957Z,30.68
2023-08-19T09:40:09.554Z,30.51
2023-08-19T09:42:40.095Z,30.90
2023-08-19T09:45:18.645Z,30.94
2023-08-19T09:47:50.024Z,30.53
2023-08-19T09:50:20.622Z,30.88
2023-08-19T09:52:56.353Z,30.71
2023-08-19T09:55:26.027Z,31.13
2023-08-19T09:57:56.128Z,30.75
2023-08-19T10:00:26.092Z,31.24
2023-08-19T10:02:54.682Z,30.79
2023-08-19T10:05:22.918Z,30.97
2023-08-19T10:08:00.417Z,30.71
2023-08-19T10:10:33.353Z,30.87
2023-08-19T10:13:05.511Z,30.14
2023-08-19T10:15:35.467Z,30.05
2023-08-19T10:18:09.705Z,30.09
2023-08-19T10:20:40.278Z,29.51
2023-08-19T10:23:12.218Z,29.20
2023-08-19T10:25:45.016Z,29.08
2023-08-19T10:28:16.136Z,28.81
2023-08-19T10:30:44.579Z,28.79
2023-08-19T10:33:37.415Z,28.85
2023-08-19T10:36:07.580Z,28.59
2023-08-19T10:38:48.227Z,28.49
2023-08-19T10:41:24.900Z,28.48
2023-08-19T10:43:59.874Z,28.41
2023-08-19T10:46:36.813Z,28.53
2023-08-19T10:49:07.134Z,28.55
2023-08-19T10:51:54.864Z,28.34
2023-08-19T10:54:39.892Z,29.02
2023-08-19T10:57:15.831Z,29.04
2023-08-19T10:59:47.584Z,29.00
2023-08-19T11:02:17.001Z,28.65
2023-08-19T11:04:49.518Z,28.58
2023-08-19T11:07:18.216Z,28.50
2023-08-19T11:09:47.822Z,29.06
2023-08-19T11:12:19.627Z,28.43
2023-08-19T11:14:50.338Z,28.93
2023-08-19T11:17:20.362Z,29.14
2023-08-19T11:19:48.427Z,29.50
2023-08-19T11:22:18.210Z,29.96
2023-08-19T11:24:46.318Z,30.25
2023-08-19T11:27:14.762Z,30.12
2023-08-19T11:29:46.750Z,30.14
2023-08-19T11:32:21.560Z,31.29
2023-08-19T11:34:49.877Z,31.55
2023-08-19T11:37:18.045Z,32.05
2023-08-19T11:39:47.507Z,32.01
2023-08-19T11:42:15.543Z,32.23
2023-08-19T11:44:44.610Z,32.73
2023-08-19T11:47:14.048Z,33.74
2023-08-19T11:49:45.548Z,33.71
2023-08-19T11:52:21.118Z,33.81
2023-08-19T11:55:01.574Z,33.67
2023-08-19T11:57:35.709Z,34.34
2023-08-19T12:00:06.300Z,33.42
2023-08-19T12:02:34.578Z,32.97
2023-08-19T12:05:04.909Z,32.98
2023-08-19T12:07:32.910Z,32.51
2023-08-19T12:10:01.344Z,31.62
2023-08-19T12:12:30.055Z,31.75
2023-08-19T12:14:59.255Z,31.11
2023-08-19T12:17:27.360Z,31.11
2023-08-19T12:19:55.348Z,30.86
2023-08-19T12:22:24.960Z,31.24
2023-08-19T12:24:53.010Z,30.58
2023-08-19T12:27:21.173Z,30.71
2023-08-19T12:29:49.878Z,30.50
2023-08-19T12:32:17.764Z,30.48
2023-08-19T12:34:45.668Z,30.00
2023-08-19T12:37:13.650Z,30.06
2023-08-19T12:39:43.117Z,29.79
2023-08-19T12:42:11.396Z,29.73
2023-08-19T12:44:39.279Z,29.24
2023-08-19T12:47:07.578Z,29.04
2023-08-19T12:49:35.539Z,28.92
2023-08-19T12:52:03.693Z,29.25
2023-08-19T12:54:31.628Z,28.63
2023-08-19T12:57:00.961Z,28.15
2023-08-19T12:59:29.286Z,28.38
2023-08-19T13:01:57.435Z,28.28
2023-08-19T13:04:25.456Z,28.52
2023-08-19T13:06:54.810Z,28.42
2023-08-19T13:09:23.950Z,27.90
2023-08-19T13:11:52.279Z,28.06
2023-08-19T13:14:21.627Z,27.75
2023-08-19T13:16:49.650Z,27.28
2023-08-19T13:19:17.582Z,27.51
2023-08-19T13:21:45.462Z,27.52
2023-08-19T13:24:14.256Z,27.82
2023-08-19T13:26:42.963Z,27.62
2023-08-19T13:29:10.885Z,27.36
2023-08-19T13:31:40.168Z,27.30
2023-08-19T13:34:10.098Z,26.96
2023-08-19T13:36:38.002Z,27.00
2023-08-19T13:39:06.797Z,27.29
2023-08-19T13:41:34.953Z,27.14
2023-08-19T13:44:02.844Z,27.14
2023-08-19T13:46:30.748Z,27.44
2023-08-19T13:49:00.004Z,27.49
2023-08-19T13:51:27.796Z,27.05
2023-08-19T13:53:55.723Z,26.88
2023-08-19T13:56:23.670Z,27.49
2023-08-19T13:58:51.604Z,27.98
2023-08-19T14:01:19.679Z,28.19
2023-08-19T14:03:47.743Z,27.87
2023-08-19T14:06:17.051Z,27.98
2023-08-19T14:08:45.927Z,27.66
2023-08-19T14:11:14.161Z,27.55
2023-08-19T14:13:42.410Z,28.00
2023-08-19T14:16:10.730Z,28.00
2023-08-19T14:18:38.627Z,27.85
2023-08-19T14:21:06.889Z,27.98
2023-08-19T14:23:37.543Z,27.87
2023-08-19T14:26:07.675Z,28.04
2023-08-19T14:28:35.992Z,27.93
2023-08-19T14:31:04.143Z,27.64
2023-08-19T14:33:32.107Z,27.73
2023-08-19T14:36:00.056Z,28.16
2023-08-19T14:38:28.078Z,27.48
2023-08-19T14:40:57.341Z,27.85
2023-08-19T14:43:25.222Z,27.19
2023-08-19T14:45:53.176Z,26.75
2023-08-19T14:48:21.223Z,27.29
2023-08-19T14:50:49.193Z,26.84
2023-08-19T14:53:17.114Z,26.75
2023-08-19T14:55:44.974Z,26.93
2023-08-19T14:58:14.120Z,26.61
2023-08-19T15:00:41.855Z,27.30
2023-08-19T15:03:11.887Z,27.14
2023-08-19T15:05:40.080Z,26.61
2023-08-19T15:08:08.488Z,26.91
2023-08-19T15:10:36.425Z,27.21
2023-08-19T15:13:04.616Z,27.39
2023-08-19T15:15:34.636Z,27.55
2023-08-19T15:18:02.801Z,27.21
2023-08-19T15:20:30.917Z,26.70
2023-08-19T15:22:58.850Z,27.15
2023-08-19T15:25:26.792Z,27.61
2023-08-19T15:27:54.634Z,27.89
2023-08-19T15:30:24.157Z,27.22
2023-08-19T15:32:54.797Z,27.19
2023-08-19T15:35:23.489Z,27.21
2023-08-19T15:37:53.401Z,27.04
2023-08-19T15:40:22.783Z,27.36
2023-08-19T15:42:50.749Z,27.60
2023-08-19T15:45:18.892Z,27.38
2023-08-19T15:47:46.899Z,27.61
2023-08-19T15:50:17.881Z,26.94
2023-08-19T15:52:46.071Z,27.40
2023-08-19T15:55:14.193Z,27.81
2023-08-19T15:57:42.129Z,27.25
2023-08-19T16:00:15.299Z,28.04
2023-08-19T16:02:43.606Z,27.56
2023-08-19T16:05:11.904Z,27.01
2023-08-19T16:07:42.405Z,27.56
2023-08-19T16:10:12.169Z,27.30
2023-08-19T16:12:42.039Z,27.79
2023-08-19T16:15:11.577Z,27.06
2023-08-19T16:17:39.679Z,27.90
2023-08-19T16:20:08.914Z,28.19
2023-08-19T16:22:36.816Z,27.71
2023-08-19T16:25:07.625Z,27.62
2023-08-19T16:27:35.832Z,27.59
2023-08-19T16:30:04.548Z,26.87
2023-08-19T16:32:32.529Z,26.95
2023-08-19T16:35:00.573Z,26.06
2023-08-19T16:37:28.490Z,26.87
2023-08-19T16:39:56.532Z,26.48
2023-08-19T16:42:27.512Z,26.75
2023-08-19T16:44:56.660Z,26.49
2023-08-19T16:47:24.979Z,26.70
2023-08-19T16:49:52.870Z,26.32
2023-08-19T16:52:22.212Z,26.42
2023-08-19T16:54:51.574Z,26.08
2023-08-19T16:57:19.498Z,25.89
2023-08-19T16:59:48.798Z,25.91
2023-08-19T17:02:16.677Z,26.27
2023-08-19T17:04:46.261Z,26.41
2023-08-19T17:07:14.706Z,26.42
2023-08-19T17:09:44.068Z,26.34
2023-08-19T17:12:11.917Z,26.26
2023-08-19T17:14:39.842Z,26.01
2023-08-19T17:17:09.349Z,25.94
2023-08-19T17:19:37.296Z,26.39
2023-08-19T17:22:05.469Z,26.51
2023-08-19T17:24:33.624Z,26.57
2023-08-19T17:27:01.649Z,26.30
2023-08-19T17:29:29.656Z,26.58
2023-08-19T17:31:57.599Z,26.07
2023-08-19T17:34:26.881Z,26.42
2023-08-19T17:36:54.624Z,26.87
2023-08-19T17:39:23.782Z,26.93
2023-08-19T17:41:51.628Z,26.10
2023-08-19T17:44:21.110Z,26.56
2023-08-19T17:46:49.004Z,26.13
2023-08-19T17:49:16.817Z,26.28
2023-08-19T17:51:50.111Z,26.45
2023-08-19T17:54:18.042Z,26.39
2023-08-19T17:56:45.938Z,26.46
2023-08-19T17:59:13.844Z,26.17
2023-08-19T18:01:41.796Z,26.28
2023-08-19T18:04:09.695Z,26.23
2023-08-19T18:06:37.790Z,25.82
2023-08-19T18:09:07.369Z,25.99
2023-08-19T18:11:35.407Z,25.99
2023-08-19T18:14:04.092Z,25.93
2023-08-19T18:16:31.955Z,26.01
2023-08-19T18:18:59.899Z,25.60
2023-08-19T18:21:27.899Z,25.18
2023-08-19T18:23:55.805Z,25.25
2023-08-19T18:26:25.013Z,25.52
2023-08-19T18:28:52.931Z,25.44
2023-08-19T18:31:20.840Z,25.31
2023-08-19T18:33:48.796Z,25.13
2023-08-19T18:36:16.700Z,25.08
2023-08-19T18:38:44.683Z,25.06
2023-08-19T18:41:12.587Z,24.94
2023-08-19T18:43:41.828Z,25.14
2023-08-19T18:46:11.275Z,24.65
2023-08-19T18:48:39.256Z,24.91
2023-08-19T18:51:07.223Z,24.76
2023-08-19T18:53:35.096Z,24.70
2023-08-19T18:56:03.088Z,24.53
2023-08-19T18:58:31.036Z,24.51
2023-08-19T19:01:04.097Z,24.50
2023-08-19T19:03:33.485Z,24.39
2023-08-19T19:06:01.863Z,24.11
2023-08-19T19:08:29.696Z,24.23
2023-08-19T19:10:57.686Z,23.76
2023-08-19T19:13:25.744Z,23.50
2023-08-19T19:15:53.801Z,24.05
2023-08-19T19:18:23.129Z,24.12
2023-08-19T19:20:52.882Z,23.77
2023-08-19T19:23:20.792Z,24.05
2023-08-19T19:25:48.720Z,23.98
2023-08-19T19:28:16.590Z,24.10
2023-08-19T19:30:44.604Z,24.14
2023-08-19T19:33:12.427Z,24.10
2023-08-19T19:35:41.920Z,24.13
2023-08-19T19:38:09.783Z,24.17
2023-08-19T19:40:37.680Z,24.09
2023-08-19T19:43:06.308Z,24.04
2023-08-19T19:45:34.769Z,24.07
2023-08-19T19:48:02.609Z,24.12
2023-08-19T19:50:30.907Z,23.95
2023-08-19T19:53:01.238Z,24.04
2023-08-19T19:55:29.364Z,23.94
2023-08-19T19:57:57.288Z,23.95
2023-08-19T20:00:29.934Z,23.89
2023-08-19T20:02:58.913Z,23.84
2023-08-19T20:05:27.064Z,23.66
2023-08-19T20:07:55.609Z,23.67
2023-08-19T20:10:28.135Z,23.60
2023-08-19T20:12:57.535Z,23.58
2023-08-19T20:15:28.914Z,23.53
2023-08-19T20:17:58.874Z,23.51
2023-08-19T20:20:26.916Z,23.34
2023-08-19T20:22:54.886Z,23.34
2023-08-19T20:25:24.251Z,23.38
2023-08-19T20:27:53.457Z,23.29
2023-08-19T20:30:23.468Z,23.16
2023-08-19T20:32:51.559Z,23.11
2023-08-19T20:35:20.725Z,22.96
2023-08-19T20:37:48.663Z,23.10
2023-08-19T20:40:16.805Z,22.84
2023-08-19T20:42:46.056Z,22.96
2023-08-19T20:45:14.854Z,22.88
2023-08-19T20:47:44.215Z,22.98
2023-08-19T20:50:12.195Z,22.45
2023-08-19T20:52:40.554Z,22.70
2023-08-19T20:55:09.367Z,22.30
2023-08-19T20:57:37.631Z,22.19
2023-08-19T21:00:09.261Z,22.26
2023-08-19T21:02:37.454Z,22.40
2023-08-19T21:05:06.278Z,22.33
2023-08-19T21:07:34.728Z,22.13
2023-08-19T21:10:05.057Z,22.35
2023-08-19T21:12:33.340Z,22.19
2023-08-19T21:15:01.255Z,22.18
2023-08-19T21:17:30.603Z,21.71
2023-08-19T21:19:58.665Z,21.87
2023-08-19T21:22:26.697Z,22.05
2023-08-19T21:24:55.039Z,22.09
2023-08-19T21:27:22.855Z,22.00
2023-08-19T21:29:50.694Z,22.13
2023-08-19T21:32:18.635Z,22.18
2023-08-19T21:34:47.855Z,22.04
2023-08-19T21:37:15.765Z,22.17
2023-08-19T21:39:43.790Z,22.06
2023-08-19T21:42:11.753Z,21.96
2023-08-19T21:44:39.791Z,21.87
2023-08-19T21:47:07.824Z,21.96
2023-08-19T21:49:35.805Z,21.81
2023-08-19T21:52:05.831Z,21.72
2023-08-19T21:54:33.675Z,21.69
2023-08-19T21:57:01.546Z,21.80
2023-08-19T21:59:29.413Z,21.72
2023-08-19T22:01:57.520Z,21.60
2023-08-19T22:04:25.513Z,21.49
2023-08-19T22:06:53.365Z,20.95
2023-08-19T22:09:22.860Z,20.98
2023-08-19T22:11:51.330Z,21.20
2023-08-19T22:14:19.623Z,21.34
2023-08-19T22:16:47.574Z,21.38
2023-08-19T22:19:15.941Z,21.34
2023-08-19T22:21:44.387Z,21.36
2023-08-19T22:24:12.389Z,21.28
2023-08-19T22:26:42.818Z,20.98
2023-08-19T22:29:10.830Z,21.08
2023-08-19T22:31:39.557Z,20.94
2023-08-19T22:34:07.511Z,20.44
2023-08-19T22:36:35.363Z,20.77
2023-08-19T22:39:03.417Z,20.22
2023-08-19T22:41:31.468Z,20.47
2023-08-19T22:44:00.769Z,20.83
2023-08-19T22:46:29.417Z,20.94
2023-08-19T22:48:57.409Z,20.55
2023-08-19T22:51:25.391Z,20.82
2023-08-19T22:53:53.462Z,21.02
2023-08-19T22:56:21.630Z,21.02
2023-08-19T22:58:49.648Z,21.14
2023-08-19T23:01:19.386Z,21.24
2023-08-19T23:03:47.252Z,21.34
2023-08-19T23:06:15.123Z,21.49
2023-08-19T23:08:43.109Z,21.42
2023-08-19T23:11:11.515Z,21.40
2023-08-19T23:13:39.497Z,21.37
2023-08-19T23:16:07.437Z,21.44
2023-08-19T23:18:37.850Z,21.21
2023-08-19T23:21:05.803Z,21.55
2023-08-19T23:23:34.066Z,21.62
2023-08-19T23:26:02.101Z,21.43
2023-08-19T23:28:30.343Z,21.58
2023-08-19T23:30:58.251Z,21.29
2023-08-19T23:33:26.542Z,21.28
2023-08-19T23:35:56.065Z,21.32
2023-08-19T23:38:23.790Z,21.33
2023-08-19T23:40:51.685Z,21.21
2023-08-19T23:43:20.116Z,21.13
2023-08-19T23:45:48.352Z,21.11
2023-08-19T23:48:17.381Z,20.76
2023-08-19T23:50:46.194Z,20.68
2023-08-19T23:53:17.749Z,20.77
2023-08-19T23:55:46.398Z,20.98
2023-08-19T23:58:15.471Z,21.01
